createdAt,value
2022-11-29T00:01:07.877Z,73.25
2022-11-29T00:05:09.648Z,64.72
2022-11-29T00:09:13.344Z,68.32
2022-11-29T00:13:14.984Z,73.00
2022-11-29T00:17:16.935Z,62.10
2022-11-29T00:21:18.805Z,58.50
2022-11-29T00:25:20.502Z,72.43
2022-11-29T00:29:22.551Z,74.35
2022-11-29T00:33:24.180Z,69.05
2022-11-29T00:37:26.132Z,68.88
2022-11-29T00:41:27.989Z,72.55
2022-11-29T00:45:29.940Z,71.13
2022-11-29T00:49:31.560Z,70.82
2022-11-29T00:53:35.231Z,69.35
2022-11-29T00:57:36.788Z,76.07
2022-11-29T01:01:38.778Z,69.85
2022-11-29T01:05:41.328Z,62.67
2022-11-29T01:09:43.316Z,67.60
2022-11-29T01:13:45.056Z,67.53
2022-11-29T01:17:47.040Z,68.22
2022-11-29T01:21:48.596Z,73.45
2022-11-29T01:26:04.978Z,69.80
2022-11-29T01:30:09.487Z,74.95
2022-11-29T01:34:11.453Z,63.50
2022-11-29T01:38:13.054Z,66.47
2022-11-29T01:42:15.142Z,71.53
2022-11-29T01:46:16.826Z,88.72
2022-11-29T01:50:19.219Z,80.50
2022-11-29T01:54:22.061Z,70.40
2022-11-29T01:58:24.070Z,75.18
2022-11-29T02:02:33.283Z,71.72
2022-11-29T02:06:36.788Z,67.25
2022-11-29T02:10:54.658Z,82.75
2022-11-29T02:15:09.897Z,69.00
2022-11-29T02:19:42.496Z,65.93
2022-11-29T02:24:09.425Z,76.28
2022-11-29T02:28:30.266Z,77.75
2022-11-29T02:32:59.146Z,68.70
2022-11-29T02:37:19.475Z,77.25
2022-11-29T02:41:40.252Z,71.25
2022-11-29T02:46:07.030Z,59.80
2022-11-29T02:50:57.870Z,65.90
2022-11-29T02:55:24.440Z,57.95
2022-11-29T02:59:57.157Z,67.10
2022-11-29T03:04:25.989Z,67.47
2022-11-29T03:08:48.629Z,64.15
2022-11-29T03:12:53.681Z,54.40
2022-11-29T03:17:12.817Z,58.72
2022-11-29T03:21:39.384Z,58.03
2022-11-29T03:25:58.236Z,63.28
2022-11-29T03:30:05.225Z,64.57
2022-11-29T03:34:44.490Z,60.72
2022-11-29T03:38:47.365Z,57.28
2022-11-29T03:42:58.104Z,65.45
2022-11-29T03:47:23.112Z,61.17
2022-11-29T03:51:47.006Z,62.70
2022-11-29T03:55:57.342Z,59.05
2022-11-29T04:00:09.906Z,62.38
2022-11-29T04:04:42.988Z,58.45
2022-11-29T04:08:56.078Z,59.13
2022-11-29T04:13:24.159Z,60.63
2022-11-29T04:17:46.038Z,56.85
2022-11-29T04:22:19.057Z,64.80
2022-11-29T04:26:40.655Z,66.10
2022-11-29T04:31:06.348Z,58.95
2022-11-29T04:35:33.857Z,61.58
2022-11-29T04:39:57.696Z,56.80
2022-11-29T04:44:10.847Z,59.55
2022-11-29T04:48:38.895Z,62.70
2022-11-29T04:53:04.540Z,59.25
2022-11-29T04:57:21.141Z,59.90
2022-11-29T05:01:48.018Z,59.08
2022-11-29T05:06:04.622Z,54.20
2022-11-29T05:10:39.928Z,61.72
2022-11-29T05:14:56.341Z,61.40
2022-11-29T05:19:19.521Z,64.97
2022-11-29T05:23:32.367Z,67.70
2022-11-29T05:27:45.892Z,63.40
2022-11-29T05:31:59.281Z,63.55
2022-11-29T05:36:21.858Z,77.90
2022-11-29T05:40:57.225Z,62.42
2022-11-29T05:45:07.893Z,70.97
2022-11-29T05:49:30.445Z,70.20
2022-11-29T05:53:41.592Z,72.47
2022-11-29T05:57:58.914Z,66.90
2022-11-29T06:02:21.072Z,74.75
2022-11-29T06:06:32.751Z,72.65
2022-11-29T06:10:40.065Z,69.82
2022-11-29T06:15:17.743Z,84.68
2022-11-29T06:20:04.305Z,76.65
2022-11-29T06:24:26.214Z,78.20
2022-11-29T06:28:51.147Z,74.32
2022-11-29T06:33:01.089Z,76.00
2022-11-29T06:37:12.938Z,74.97
2022-11-29T06:41:24.440Z,75.07
2022-11-29T06:45:26.557Z,64.38
2022-11-29T06:49:32.514Z,71.93
2022-11-29T06:53:47.489Z,70.88
2022-11-29T06:57:55.522Z,83.75
2022-11-29T07:02:04.736Z,72.90
2022-11-29T07:06:24.907Z,71.60
2022-11-29T07:10:27.646Z,59.17
2022-11-29T07:14:29.772Z,68.70
2022-11-29T07:18:47.231Z,67.15
2022-11-29T07:23:13.190Z,68.20
2022-11-29T07:27:21.673Z,69.40
2022-11-29T07:31:38.539Z,64.07
2022-11-29T07:36:09.504Z,67.88
2022-11-29T07:40:37.149Z,66.22
2022-11-29T07:44:48.682Z,55.35
2022-11-29T07:48:51.486Z,66.88
2022-11-29T07:52:54.521Z,67.97
2022-11-29T07:56:56.443Z,56.50
2022-11-29T08:00:58.213Z,63.22
2022-11-29T08:05:01.673Z,62.22
2022-11-29T08:09:04.673Z,61.20
2022-11-29T08:13:06.515Z,56.22
2022-11-29T08:17:08.145Z,59.17
2022-11-29T08:21:10.404Z,57.80
2022-11-29T08:25:12.497Z,60.15
2022-11-29T08:29:14.422Z,55.30
2022-11-29T08:33:17.279Z,63.42
2022-11-29T08:37:19.219Z,52.72
2022-11-29T08:41:20.862Z,55.60
2022-11-29T08:45:22.810Z,62.17
2022-11-29T08:49:24.559Z,57.60
2022-11-29T08:53:41.431Z,55.00
2022-11-29T08:57:43.479Z,50.65
2022-11-29T09:01:45.026Z,51.50
2022-11-29T09:05:47.119Z,54.22
2022-11-29T09:09:48.877Z,51.90
2022-11-29T09:13:54.395Z,53.88
2022-11-29T09:17:55.992Z,57.50
2022-11-29T09:21:58.044Z,45.85
2022-11-29T09:25:59.932Z,48.53
2022-11-29T09:30:01.616Z,51.47
2022-11-29T09:34:04.026Z,45.95
2022-11-29T09:38:05.851Z,54.78
2022-11-29T09:42:18.915Z,44.13
2022-11-29T09:46:23.557Z,44.08
2022-11-29T09:50:28.070Z,48.80
2022-11-29T09:54:44.355Z,50.03
2022-11-29T09:58:57.490Z,52.13
2022-11-29T10:03:20.329Z,48.63
2022-11-29T10:07:30.197Z,43.15
2022-11-29T10:11:59.938Z,49.05
2022-11-29T10:16:24.539Z,48.65
2022-11-29T10:20:32.614Z,47.13
2022-11-29T10:24:38.794Z,44.25
2022-11-29T10:28:47.450Z,53.60
2022-11-29T10:32:56.164Z,53.50
2022-11-29T10:37:02.325Z,52.63
2022-11-29T10:41:10.551Z,52.00
2022-11-29T10:45:17.894Z,58.35
2022-11-29T10:49:23.658Z,49.50
2022-11-29T10:53:36.582Z,46.88
2022-11-29T10:58:07.616Z,52.58
2022-11-29T11:02:20.115Z,53.60
2022-11-29T11:06:26.450Z,49.83
2022-11-29T11:10:30.757Z,46.92
2022-11-29T11:14:37.524Z,49.28
2022-11-29T11:18:39.459Z,48.60
2022-11-29T11:22:41.356Z,46.67
2022-11-29T11:26:45.348Z,49.10
2022-11-29T11:30:59.387Z,52.63
2022-11-29T11:35:02.534Z,47.17
2022-11-29T11:39:19.545Z,45.47
2022-11-29T11:43:21.939Z,49.95
2022-11-29T11:47:27.289Z,43.95
2022-11-29T11:51:29.044Z,39.78
2022-11-29T11:55:43.665Z,45.17
2022-11-29T11:59:54.442Z,42.92
2022-11-29T12:04:10.151Z,44.70
2022-11-29T12:08:14.010Z,48.05
2022-11-29T12:12:25.277Z,52.83
2022-11-29T12:16:33.088Z,50.17
2022-11-29T12:20:48.590Z,58.28
2022-11-29T12:24:57.885Z,56.92
2022-11-29T12:29:00.005Z,51.22
2022-11-29T12:33:34.368Z,50.95
2022-11-29T12:37:53.343Z,59.08
2022-11-29T12:46:31.225Z,60.38
2022-11-29T12:50:45.252Z,68.35
2022-11-29T12:55:06.020Z,47.20
2022-11-29T12:59:26.135Z,47.65
2022-11-29T13:03:37.233Z,52.72
2022-11-29T13:08:01.387Z,48.78
2022-11-29T13:12:26.699Z,47.47
2022-11-29T13:16:31.344Z,49.10
2022-11-29T13:20:53.870Z,42.63
2022-11-29T13:25:12.716Z,48.10
2022-11-29T13:29:17.984Z,39.45
2022-11-29T13:33:54.374Z,51.95
2022-11-29T13:38:07.810Z,53.70
2022-11-29T13:42:28.996Z,48.70
2022-11-29T13:46:42.405Z,49.38
2022-11-29T13:50:45.201Z,48.83
2022-11-29T13:54:47.461Z,57.05
2022-11-29T13:58:53.802Z,49.85
2022-11-29T14:02:57.398Z,49.65
2022-11-29T14:07:06.102Z,46.38
2022-11-29T14:11:14.146Z,42.70
2022-11-29T14:15:42.875Z,48.13
2022-11-29T14:19:44.789Z,47.65
2022-11-29T14:23:46.797Z,45.50
2022-11-29T14:27:56.169Z,48.00
2022-11-29T14:31:59.792Z,51.17
2022-11-29T14:36:29.964Z,47.38
2022-11-29T14:40:41.318Z,46.30
2022-11-29T14:44:47.262Z,51.65
2022-11-29T14:48:55.239Z,50.20
2022-11-29T14:52:56.887Z,49.90
2022-11-29T14:57:38.152Z,49.88
2022-11-29T15:01:45.414Z,46.50
2022-11-29T15:06:06.163Z,44.20
2022-11-29T15:10:17.836Z,47.97
2022-11-29T15:14:50.552Z,45.88
2022-11-29T15:19:22.951Z,42.47
2022-11-29T15:23:24.701Z,51.88
2022-11-29T15:27:27.087Z,49.63
2022-11-29T15:31:28.891Z,48.42
2022-11-29T15:35:32.900Z,45.20
2022-11-29T15:39:37.809Z,47.67
2022-11-29T15:43:40.847Z,59.60
2022-11-29T15:47:42.527Z,52.08
2022-11-29T15:51:49.578Z,49.80
2022-11-29T15:55:53.947Z,48.90
2022-11-29T15:59:59.131Z,49.00
2022-11-29T16:04:01.493Z,49.72
2022-11-29T16:08:07.958Z,49.25
2022-11-29T16:12:14.153Z,54.45
2022-11-29T16:16:23.698Z,60.45
2022-11-29T16:20:26.099Z,48.35
2022-11-29T16:24:28.267Z,53.60
2022-11-29T16:28:37.357Z,58.55
2022-11-29T16:32:43.183Z,46.97
2022-11-29T16:36:44.919Z,46.53
2022-11-29T16:41:08.616Z,51.70
2022-11-29T16:45:33.644Z,58.58
2022-11-29T16:49:36.420Z,59.10
2022-11-29T16:53:42.333Z,56.92
2022-11-29T16:57:45.827Z,52.55
2022-11-29T17:01:47.893Z,48.78
2022-11-29T17:05:50.195Z,52.70
2022-11-29T17:09:52.884Z,48.75
2022-11-29T17:13:54.513Z,52.47
2022-11-29T17:17:56.522Z,55.25
2022-11-29T17:21:58.623Z,50.83
2022-11-29T17:26:02.433Z,44.15
2022-11-29T17:30:06.586Z,52.75
2022-11-29T17:34:08.913Z,53.40
2022-11-29T17:38:10.520Z,53.80
2022-11-29T17:42:12.601Z,51.42
2022-11-29T17:46:16.826Z,62.67
2022-11-29T17:50:19.076Z,56.25
2022-11-29T17:54:23.947Z,56.08
2022-11-29T17:58:26.344Z,46.67
2022-11-29T18:02:27.996Z,55.95
2022-11-29T18:06:34.853Z,55.33
2022-11-29T18:10:36.545Z,55.72
2022-11-29T18:14:39.059Z,52.05
2022-11-29T18:18:41.085Z,50.00
2022-11-29T18:22:43.177Z,46.53
2022-11-29T18:26:45.264Z,46.08
2022-11-29T18:30:47.596Z,44.03
2022-11-29T18:34:49.404Z,49.67
2022-11-29T18:38:59.846Z,49.53
2022-11-29T18:43:01.502Z,63.15
2022-11-29T18:47:03.931Z,56.55
2022-11-29T18:51:07.961Z,52.22
2022-11-29T18:55:10.031Z,47.47
2022-11-29T18:59:17.198Z,55.20
2022-11-29T19:03:19.530Z,48.92
2022-11-29T19:07:21.272Z,46.00
2022-11-29T19:11:25.140Z,45.55
2022-11-29T19:15:26.767Z,52.92
2022-11-29T19:19:28.754Z,48.60
2022-11-29T19:23:30.710Z,45.47
2022-11-29T19:27:32.400Z,46.08
2022-11-29T19:31:34.444Z,46.90
2022-11-29T19:35:36.111Z,49.22
2022-11-29T19:39:38.876Z,45.88
2022-11-29T19:43:41.062Z,50.88
2022-11-29T19:47:42.911Z,47.75
2022-11-29T19:51:44.951Z,44.42
2022-11-29T19:55:46.650Z,48.38
2022-11-29T19:59:48.616Z,55.28
2022-11-29T20:03:51.089Z,45.95
2022-11-29T20:07:53.243Z,47.80
2022-11-29T20:11:54.854Z,46.55
2022-11-29T20:16:02.326Z,44.55
2022-11-29T20:20:04.608Z,46.72
2022-11-29T20:24:07.845Z,52.15
2022-11-29T20:28:09.540Z,49.47
2022-11-29T20:32:11.823Z,51.95
2022-11-29T20:36:37.623Z,52.28
2022-11-29T20:41:02.972Z,54.03
2022-11-29T20:45:08.353Z,54.38
2022-11-29T20:49:14.129Z,53.47
2022-11-29T20:53:35.012Z,48.90
2022-11-29T20:57:38.501Z,49.15
2022-11-29T21:01:40.500Z,46.35
2022-11-29T21:05:42.643Z,40.25
2022-11-29T21:09:45.092Z,48.78
2022-11-29T21:13:47.650Z,48.63
2022-11-29T21:17:50.033Z,57.13
2022-11-29T21:22:19.909Z,48.40
2022-11-29T21:26:35.989Z,50.50
2022-11-29T21:30:43.434Z,47.45
2022-11-29T21:34:45.741Z,41.90
2022-11-29T21:38:53.883Z,52.85
2022-11-29T21:42:56.934Z,52.40
2022-11-29T21:46:58.694Z,50.05
2022-11-29T21:51:05.447Z,49.50
2022-11-29T21:55:07.500Z,50.05
2022-11-29T21:59:09.551Z,51.38
2022-11-29T22:03:11.251Z,47.47
2022-11-29T22:07:13.215Z,48.78
2022-11-29T22:11:30.763Z,50.10
2022-11-29T22:15:33.009Z,44.25
2022-11-29T22:19:39.450Z,43.97
2022-11-29T22:23:41.125Z,44.35
2022-11-29T22:27:43.079Z,51.75
2022-11-29T22:31:47.025Z,49.80
2022-11-29T22:35:48.867Z,50.05
2022-11-29T22:39:50.747Z,45.22
2022-11-29T22:43:52.945Z,46.70
2022-11-29T22:47:54.584Z,48.13
2022-11-29T22:51:56.515Z,45.17
2022-11-29T22:56:00.014Z,49.50
2022-11-29T23:00:02.040Z,54.25
2022-11-29T23:04:07.101Z,58.53
2022-11-29T23:08:08.932Z,47.38
2022-11-29T23:12:10.961Z,49.20
2022-11-29T23:16:16.058Z,52.90
2022-11-29T23:20:17.930Z,51.33
2022-11-29T23:24:20.007Z,48.03
2022-11-29T23:28:21.959Z,49.80
2022-11-29T23:32:24.060Z,43.78
2022-11-29T23:36:26.009Z,49.85
2022-11-29T23:40:27.655Z,48.75
2022-11-29T23:44:29.618Z,42.20
2022-11-29T23:48:31.288Z,48.25
2022-11-29T23:52:33.168Z,50.17
2022-11-29T23:56:35.490Z,50.38
